sensor_id;sensor_type;location;lat;lon;timestamp;P1;durP1;ratioP1;P2;durP2;ratioP2
25988;SDS011;13778;48.236;9.894;2022-12-18T00:02:41;116.67;;;44.90;;
25988;SDS011;13778;48.236;9.894;2022-12-18T00:05:32;108.80;;;46.35;;
25988;SDS011;13778;48.236;9.894;2022-12-18T00:08:24;105.87;;;41.67;;
25988;SDS011;13778;48.236;9.894;2022-12-18T00:11:14;104.50;;;41.40;;
25988;SDS011;13778;48.236;9.894;2022-12-18T00:14:05;105.25;;;42.28;;
25988;SDS011;13778;48.236;9.894;2022-12-18T00:16:56;101.82;;;43.38;;
25988;SDS011;13778;48.236;9.894;2022-12-18T00:19:47;112.80;;;43.95;;
25988;SDS011;13778;48.236;9.894;2022-12-18T00:22:37;109.72;;;41.72;;
25988;SDS011;13778;48.236;9.894;2022-12-18T00:25:29;113.00;;;43.73;;
25988;SDS011;13778;48.236;9.894;2022-12-18T00:28:20;118.78;;;45.05;;
25988;SDS011;13778;48.236;9.894;2022-12-18T00:31:12;111.72;;;46.58;;
25988;SDS011;13778;48.236;9.894;2022-12-18T00:34:03;107.82;;;45.13;;
25988;SDS011;13778;48.236;9.894;2022-12-18T00:36:53;98.43;;;40.05;;
25988;SDS011;13778;48.236;9.894;2022-12-18T00:39:43;109.75;;;42.58;;
25988;SDS011;13778;48.236;9.894;2022-12-18T00:42:35;84.83;;;36.83;;
25988;SDS011;13778;48.236;9.894;2022-12-18T00:45:43;118.68;;;42.85;;
25988;SDS011;13778;48.236;9.894;2022-12-18T00:48:34;103.03;;;43.08;;
25988;SDS011;13778;48.236;9.894;2022-12-18T00:51:24;110.28;;;42.05;;
25988;SDS011;13778;48.236;9.894;2022-12-18T00:54:15;108.90;;;42.30;;
25988;SDS011;13778;48.236;9.894;2022-12-18T00:57:06;112.77;;;43.77;;
25988;SDS011;13778;48.236;9.894;2022-12-18T00:59:58;100.53;;;37.93;;
25988;SDS011;13778;48.236;9.894;2022-12-18T01:02:48;105.10;;;40.72;;
25988;SDS011;13778;48.236;9.894;2022-12-18T01:05:39;112.37;;;41.33;;
25988;SDS011;13778;48.236;9.894;2022-12-18T01:08:30;116.72;;;42.53;;
25988;SDS011;13778;48.236;9.894;2022-12-18T01:11:22;112.07;;;42.00;;
25988;SDS011;13778;48.236;9.894;2022-12-18T01:14:13;118.18;;;45.53;;
25988;SDS011;13778;48.236;9.894;2022-12-18T01:17:04;118.35;;;43.55;;
25988;SDS011;13778;48.236;9.894;2022-12-18T01:19:55;108.88;;;41.05;;
25988;SDS011;13778;48.236;9.894;2022-12-18T01:22:46;96.20;;;36.40;;
25988;SDS011;13778;48.236;9.894;2022-12-18T01:25:36;114.63;;;41.93;;
25988;SDS011;13778;48.236;9.894;2022-12-18T01:28:27;121.07;;;42.00;;
25988;SDS011;13778;48.236;9.894;2022-12-18T01:31:18;97.90;;;38.10;;
25988;SDS011;13778;48.236;9.894;2022-12-18T01:37:00;115.45;;;43.42;;
25988;SDS011;13778;48.236;9.894;2022-12-18T01:39:52;119.95;;;41.75;;
25988;SDS011;13778;48.236;9.894;2022-12-18T01:42:43;113.55;;;43.13;;
25988;SDS011;13778;48.236;9.894;2022-12-18T01:45:33;108.35;;;41.10;;
25988;SDS011;13778;48.236;9.894;2022-12-18T01:48:24;106.30;;;41.63;;
25988;SDS011;13778;48.236;9.894;2022-12-18T01:51:14;109.70;;;41.78;;
25988;SDS011;13778;48.236;9.894;2022-12-18T01:54:06;117.45;;;42.10;;
25988;SDS011;13778;48.236;9.894;2022-12-18T01:56:57;103.15;;;41.50;;
25988;SDS011;13778;48.236;9.894;2022-12-18T01:59:49;109.43;;;39.87;;
25988;SDS011;13778;48.236;9.894;2022-12-18T02:02:41;116.82;;;43.85;;
25988;SDS011;13778;48.236;9.894;2022-12-18T02:05:36;113.13;;;42.55;;
25988;SDS011;13778;48.236;9.894;2022-12-18T02:08:30;117.10;;;42.65;;
25988;SDS011;13778;48.236;9.894;2022-12-18T02:11:26;124.18;;;45.08;;
25988;SDS011;13778;48.236;9.894;2022-12-18T02:14:22;129.07;;;44.10;;
25988;SDS011;13778;48.236;9.894;2022-12-18T02:17:15;110.40;;;43.35;;
25988;SDS011;13778;48.236;9.894;2022-12-18T02:20:09;112.53;;;41.30;;
25988;SDS011;13778;48.236;9.894;2022-12-18T02:23:06;118.15;;;43.08;;
25988;SDS011;13778;48.236;9.894;2022-12-18T02:26:03;116.97;;;41.72;;
25988;SDS011;13778;48.236;9.894;2022-12-18T02:28:56;115.00;;;40.80;;
25988;SDS011;13778;48.236;9.894;2022-12-18T02:31:49;113.88;;;42.78;;
25988;SDS011;13778;48.236;9.894;2022-12-18T02:34:41;116.78;;;44.47;;
25988;SDS011;13778;48.236;9.894;2022-12-18T02:37:33;114.45;;;41.53;;
25988;SDS011;13778;48.236;9.894;2022-12-18T02:40:25;115.50;;;43.88;;
25988;SDS011;13778;48.236;9.894;2022-12-18T02:43:17;120.40;;;43.72;;
25988;SDS011;13778;48.236;9.894;2022-12-18T02:46:25;116.45;;;43.95;;
25988;SDS011;13778;48.236;9.894;2022-12-18T02:49:23;121.13;;;44.80;;
25988;SDS011;13778;48.236;9.894;2022-12-18T02:52:17;114.45;;;42.28;;
25988;SDS011;13778;48.236;9.894;2022-12-18T02:55:14;123.70;;;43.45;;
25988;SDS011;13778;48.236;9.894;2022-12-18T02:58:08;116.47;;;44.92;;
25988;SDS011;13778;48.236;9.894;2022-12-18T03:01:05;130.25;;;48.17;;
25988;SDS011;13778;48.236;9.894;2022-12-18T03:03:57;121.18;;;44.03;;
25988;SDS011;13778;48.236;9.894;2022-12-18T03:06:51;115.20;;;43.25;;
25988;SDS011;13778;48.236;9.894;2022-12-18T03:09:44;120.53;;;43.78;;
25988;SDS011;13778;48.236;9.894;2022-12-18T03:12:38;110.03;;;41.67;;
25988;SDS011;13778;48.236;9.894;2022-12-18T03:15:30;106.70;;;41.97;;
25988;SDS011;13778;48.236;9.894;2022-12-18T03:18:24;111.80;;;41.30;;
25988;SDS011;13778;48.236;9.894;2022-12-18T03:21:16;126.95;;;46.05;;
25988;SDS011;13778;48.236;9.894;2022-12-18T03:24:08;115.43;;;43.15;;
25988;SDS011;13778;48.236;9.894;2022-12-18T03:27:00;120.43;;;44.08;;
25988;SDS011;13778;48.236;9.894;2022-12-18T03:32:42;113.95;;;41.85;;
25988;SDS011;13778;48.236;9.894;2022-12-18T03:35:37;107.90;;;41.90;;
25988;SDS011;13778;48.236;9.894;2022-12-18T03:38:28;111.68;;;42.38;;
25988;SDS011;13778;48.236;9.894;2022-12-18T03:41:19;113.37;;;44.20;;
25988;SDS011;13778;48.236;9.894;2022-12-18T03:44:16;126.53;;;44.63;;
25988;SDS011;13778;48.236;9.894;2022-12-18T03:47:12;109.95;;;43.50;;
25988;SDS011;13778;48.236;9.894;2022-12-18T03:50:06;113.25;;;40.60;;
25988;SDS011;13778;48.236;9.894;2022-12-18T03:53:02;111.85;;;40.67;;
25988;SDS011;13778;48.236;9.894;2022-12-18T03:55:55;125.93;;;44.88;;
25988;SDS011;13778;48.236;9.894;2022-12-18T03:58:46;127.28;;;42.70;;
25988;SDS011;13778;48.236;9.894;2022-12-18T04:01:38;122.68;;;43.42;;
25988;SDS011;13778;48.236;9.894;2022-12-18T04:07:19;119.32;;;43.28;;
25988;SDS011;13778;48.236;9.894;2022-12-18T04:10:12;119.55;;;45.22;;
25988;SDS011;13778;48.236;9.894;2022-12-18T04:13:03;116.05;;;41.55;;
25988;SDS011;13778;48.236;9.894;2022-12-18T04:15:54;117.00;;;43.40;;
25988;SDS011;13778;48.236;9.894;2022-12-18T04:18:44;124.75;;;43.50;;
25988;SDS011;13778;48.236;9.894;2022-12-18T04:21:35;112.87;;;42.07;;
25988;SDS011;13778;48.236;9.894;2022-12-18T04:24:25;117.57;;;43.42;;
25988;SDS011;13778;48.236;9.894;2022-12-18T04:27:17;122.07;;;43.72;;
25988;SDS011;13778;48.236;9.894;2022-12-18T04:30:08;121.78;;;45.30;;
25988;SDS011;13778;48.236;9.894;2022-12-18T04:32:59;130.75;;;48.97;;
25988;SDS011;13778;48.236;9.894;2022-12-18T04:35:49;114.23;;;41.23;;
25988;SDS011;13778;48.236;9.894;2022-12-18T04:38:40;121.82;;;41.80;;
25988;SDS011;13778;48.236;9.894;2022-12-18T04:41:30;129.53;;;43.43;;
25988;SDS011;13778;48.236;9.894;2022-12-18T04:44:22;126.57;;;42.53;;
25988;SDS011;13778;48.236;9.894;2022-12-18T04:47:13;125.97;;;45.72;;
25988;SDS011;13778;48.236;9.894;2022-12-18T04:50:03;127.05;;;43.70;;
25988;SDS011;13778;48.236;9.894;2022-12-18T04:52:54;116.88;;;42.80;;
25988;SDS011;13778;48.236;9.894;2022-12-18T04:55:45;112.60;;;41.05;;
25988;SDS011;13778;48.236;9.894;2022-12-18T04:58:35;128.85;;;44.63;;
25988;SDS011;13778;48.236;9.894;2022-12-18T05:01:27;123.13;;;43.38;;
25988;SDS011;13778;48.236;9.894;2022-12-18T05:04:18;110.03;;;40.13;;
25988;SDS011;13778;48.236;9.894;2022-12-18T05:07:08;127.63;;;46.15;;
25988;SDS011;13778;48.236;9.894;2022-12-18T05:09:58;124.50;;;42.72;;
25988;SDS011;13778;48.236;9.894;2022-12-18T05:12:49;114.75;;;41.22;;
25988;SDS011;13778;48.236;9.894;2022-12-18T05:15:50;111.97;;;43.47;;
25988;SDS011;13778;48.236;9.894;2022-12-18T05:18:43;126.07;;;41.95;;
25988;SDS011;13778;48.236;9.894;2022-12-18T05:21:33;108.28;;;41.55;;
25988;SDS011;13778;48.236;9.894;2022-12-18T05:24:24;108.72;;;42.75;;
25988;SDS011;13778;48.236;9.894;2022-12-18T05:27:14;125.20;;;42.10;;
25988;SDS011;13778;48.236;9.894;2022-12-18T05:30:05;131.57;;;44.75;;
25988;SDS011;13778;48.236;9.894;2022-12-18T05:32:55;120.30;;;40.83;;
25988;SDS011;13778;48.236;9.894;2022-12-18T05:35:51;124.53;;;42.42;;
25988;SDS011;13778;48.236;9.894;2022-12-18T05:38:41;120.45;;;45.30;;
25988;SDS011;13778;48.236;9.894;2022-12-18T05:41:32;112.43;;;40.17;;
25988;SDS011;13778;48.236;9.894;2022-12-18T05:44:22;109.68;;;39.63;;
25988;SDS011;13778;48.236;9.894;2022-12-18T05:47:13;106.07;;;40.53;;
25988;SDS011;13778;48.236;9.894;2022-12-18T05:50:04;119.67;;;43.03;;
25988;SDS011;13778;48.236;9.894;2022-12-18T05:52:57;122.15;;;42.53;;
25988;SDS011;13778;48.236;9.894;2022-12-18T05:55:48;104.28;;;40.03;;
25988;SDS011;13778;48.236;9.894;2022-12-18T05:58:38;116.00;;;39.83;;
25988;SDS011;13778;48.236;9.894;2022-12-18T06:01:29;112.25;;;40.47;;
25988;SDS011;13778;48.236;9.894;2022-12-18T06:04:19;106.57;;;39.20;;
25988;SDS011;13778;48.236;9.894;2022-12-18T06:07:10;81.55;;;31.35;;
25988;SDS011;13778;48.236;9.894;2022-12-18T06:10:02;107.90;;;38.97;;
25988;SDS011;13778;48.236;9.894;2022-12-18T06:12:53;108.43;;;37.50;;
25988;SDS011;13778;48.236;9.894;2022-12-18T06:15:43;113.53;;;40.67;;
25988;SDS011;13778;48.236;9.894;2022-12-18T06:18:34;113.03;;;41.23;;
25988;SDS011;13778;48.236;9.894;2022-12-18T06:21:24;103.13;;;37.90;;
25988;SDS011;13778;48.236;9.894;2022-12-18T06:24:15;117.63;;;39.93;;
25988;SDS011;13778;48.236;9.894;2022-12-18T06:27:07;98.38;;;38.08;;
25988;SDS011;13778;48.236;9.894;2022-12-18T06:29:57;106.50;;;39.65;;
25988;SDS011;13778;48.236;9.894;2022-12-18T06:32:48;103.75;;;40.22;;
25988;SDS011;13778;48.236;9.894;2022-12-18T06:35:38;98.93;;;38.55;;
25988;SDS011;13778;48.236;9.894;2022-12-18T06:38:29;105.17;;;36.87;;
25988;SDS011;13778;48.236;9.894;2022-12-18T06:41:20;106.35;;;37.92;;
25988;SDS011;13778;48.236;9.894;2022-12-18T06:44:12;109.53;;;41.15;;
25988;SDS011;13778;48.236;9.894;2022-12-18T06:47:02;101.35;;;38.70;;
25988;SDS011;13778;48.236;9.894;2022-12-18T06:49:53;98.00;;;37.77;;
25988;SDS011;13778;48.236;9.894;2022-12-18T06:52:43;95.57;;;36.40;;
25988;SDS011;13778;48.236;9.894;2022-12-18T06:55:34;104.63;;;39.97;;
25988;SDS011;13778;48.236;9.894;2022-12-18T06:58:24;86.60;;;33.72;;
25988;SDS011;13778;48.236;9.894;2022-12-18T07:01:16;99.67;;;39.23;;
25988;SDS011;13778;48.236;9.894;2022-12-18T07:04:07;98.65;;;38.85;;
25988;SDS011;13778;48.236;9.894;2022-12-18T07:06:57;103.38;;;38.88;;
25988;SDS011;13778;48.236;9.894;2022-12-18T07:09:49;100.45;;;40.40;;
25988;SDS011;13778;48.236;9.894;2022-12-18T07:12:39;106.03;;;38.92;;
25988;SDS011;13778;48.236;9.894;2022-12-18T07:15:30;110.23;;;40.77;;
25988;SDS011;13778;48.236;9.894;2022-12-18T07:18:22;102.95;;;41.78;;
25988;SDS011;13778;48.236;9.894;2022-12-18T07:21:13;112.10;;;40.90;;
25988;SDS011;13778;48.236;9.894;2022-12-18T07:24:03;107.97;;;40.63;;
25988;SDS011;13778;48.236;9.894;2022-12-18T07:26:54;108.47;;;39.35;;
25988;SDS011;13778;48.236;9.894;2022-12-18T07:29:45;98.20;;;36.97;;
25988;SDS011;13778;48.236;9.894;2022-12-18T07:32:35;98.80;;;37.70;;
25988;SDS011;13778;48.236;9.894;2022-12-18T07:35:27;96.82;;;36.65;;
25988;SDS011;13778;48.236;9.894;2022-12-18T07:38:18;108.00;;;38.78;;
25988;SDS011;13778;48.236;9.894;2022-12-18T07:41:09;105.22;;;38.00;;
25988;SDS011;13778;48.236;9.894;2022-12-18T07:43:59;102.10;;;37.13;;
25988;SDS011;13778;48.236;9.894;2022-12-18T07:46:50;99.80;;;40.97;;
25988;SDS011;13778;48.236;9.894;2022-12-18T07:49:41;107.53;;;39.45;;
25988;SDS011;13778;48.236;9.894;2022-12-18T07:52:32;105.15;;;41.08;;
25988;SDS011;13778;48.236;9.894;2022-12-18T07:55:23;117.13;;;42.20;;
25988;SDS011;13778;48.236;9.894;2022-12-18T07:58:13;110.25;;;40.78;;
25988;SDS011;13778;48.236;9.894;2022-12-18T08:01:04;107.57;;;40.65;;
25988;SDS011;13778;48.236;9.894;2022-12-18T08:03:55;104.15;;;38.47;;
25988;SDS011;13778;48.236;9.894;2022-12-18T08:06:47;112.97;;;40.65;;
25988;SDS011;13778;48.236;9.894;2022-12-18T08:09:38;105.43;;;37.85;;
25988;SDS011;13778;48.236;9.894;2022-12-18T08:12:29;116.13;;;42.70;;
25988;SDS011;13778;48.236;9.894;2022-12-18T08:15:19;103.97;;;37.83;;
25988;SDS011;13778;48.236;9.894;2022-12-18T08:18:10;103.43;;;38.20;;
25988;SDS011;13778;48.236;9.894;2022-12-18T08:21:07;99.67;;;36.03;;
25988;SDS011;13778;48.236;9.894;2022-12-18T08:23:59;93.05;;;36.95;;
25988;SDS011;13778;48.236;9.894;2022-12-18T08:26:51;87.07;;;35.45;;
25988;SDS011;13778;48.236;9.894;2022-12-18T08:29:41;70.28;;;29.83;;
25988;SDS011;13778;48.236;9.894;2022-12-18T08:32:32;75.10;;;32.65;;
25988;SDS011;13778;48.236;9.894;2022-12-18T08:35:22;47.60;;;19.98;;
25988;SDS011;13778;48.236;9.894;2022-12-18T08:38:13;50.73;;;21.13;;
25988;SDS011;13778;48.236;9.894;2022-12-18T08:41:04;63.65;;;27.20;;
25988;SDS011;13778;48.236;9.894;2022-12-18T08:43:57;59.38;;;24.58;;
25988;SDS011;13778;48.236;9.894;2022-12-18T08:47:05;64.20;;;27.05;;
25988;SDS011;13778;48.236;9.894;2022-12-18T08:49:56;70.25;;;26.10;;
25988;SDS011;13778;48.236;9.894;2022-12-18T08:52:46;65.60;;;28.08;;
25988;SDS011;13778;48.236;9.894;2022-12-18T08:55:37;62.13;;;26.70;;
25988;SDS011;13778;48.236;9.894;2022-12-18T08:58:28;57.20;;;25.03;;
25988;SDS011;13778;48.236;9.894;2022-12-18T09:01:20;59.25;;;27.63;;
25988;SDS011;13778;48.236;9.894;2022-12-18T09:04:10;55.00;;;24.90;;
25988;SDS011;13778;48.236;9.894;2022-12-18T09:07:01;51.30;;;24.03;;
25988;SDS011;13778;48.236;9.894;2022-12-18T09:09:52;57.00;;;24.27;;
25988;SDS011;13778;48.236;9.894;2022-12-18T09:12:42;59.70;;;26.95;;
25988;SDS011;13778;48.236;9.894;2022-12-18T09:15:33;58.08;;;26.98;;
25988;SDS011;13778;48.236;9.894;2022-12-18T09:18:24;56.42;;;27.27;;
25988;SDS011;13778;48.236;9.894;2022-12-18T09:21:16;55.70;;;24.17;;
25988;SDS011;13778;48.236;9.894;2022-12-18T09:24:08;53.15;;;23.60;;
25988;SDS011;13778;48.236;9.894;2022-12-18T09:27:01;65.30;;;29.73;;
25988;SDS011;13778;48.236;9.894;2022-12-18T09:29:51;76.25;;;34.30;;
25988;SDS011;13778;48.236;9.894;2022-12-18T09:32:42;63.47;;;29.83;;
25988;SDS011;13778;48.236;9.894;2022-12-18T09:35:34;55.28;;;25.08;;
25988;SDS011;13778;48.236;9.894;2022-12-18T09:38:25;45.97;;;23.05;;
25988;SDS011;13778;48.236;9.894;2022-12-18T09:41:19;55.17;;;24.45;;
25988;SDS011;13778;48.236;9.894;2022-12-18T09:44:17;54.63;;;23.92;;
25988;SDS011;13778;48.236;9.894;2022-12-18T09:47:09;58.58;;;26.55;;
25988;SDS011;13778;48.236;9.894;2022-12-18T09:50:03;46.17;;;22.25;;
25988;SDS011;13778;48.236;9.894;2022-12-18T09:52:56;53.10;;;23.88;;
25988;SDS011;13778;48.236;9.894;2022-12-18T09:55:48;59.75;;;27.25;;
25988;SDS011;13778;48.236;9.894;2022-12-18T09:58:39;54.67;;;25.40;;
25988;SDS011;13778;48.236;9.894;2022-12-18T10:01:33;53.65;;;24.73;;
25988;SDS011;13778;48.236;9.894;2022-12-18T10:04:24;53.75;;;24.20;;
25988;SDS011;13778;48.236;9.894;2022-12-18T10:07:15;55.58;;;24.48;;
25988;SDS011;13778;48.236;9.894;2022-12-18T10:10:11;55.05;;;25.90;;
25988;SDS011;13778;48.236;9.894;2022-12-18T10:13:07;54.50;;;26.17;;
25988;SDS011;13778;48.236;9.894;2022-12-18T10:16:08;53.78;;;24.17;;
25988;SDS011;13778;48.236;9.894;2022-12-18T10:19:01;55.53;;;25.65;;
25988;SDS011;13778;48.236;9.894;2022-12-18T10:21:57;51.80;;;22.73;;
25988;SDS011;13778;48.236;9.894;2022-12-18T10:24:51;50.33;;;23.83;;
25988;SDS011;13778;48.236;9.894;2022-12-18T10:27:45;54.40;;;23.08;;
25988;SDS011;13778;48.236;9.894;2022-12-18T10:30:35;50.67;;;22.48;;
25988;SDS011;13778;48.236;9.894;2022-12-18T10:33:28;46.45;;;21.17;;
25988;SDS011;13778;48.236;9.894;2022-12-18T10:36:18;50.97;;;23.80;;
25988;SDS011;13778;48.236;9.894;2022-12-18T10:39:15;53.40;;;22.60;;
25988;SDS011;13778;48.236;9.894;2022-12-18T10:42:09;48.53;;;23.55;;
25988;SDS011;13778;48.236;9.894;2022-12-18T10:45:02;51.55;;;22.88;;
25988;SDS011;13778;48.236;9.894;2022-12-18T10:47:53;49.75;;;22.27;;
25988;SDS011;13778;48.236;9.894;2022-12-18T10:50:45;58.33;;;23.17;;
25988;SDS011;13778;48.236;9.894;2022-12-18T10:53:36;56.58;;;24.73;;
25988;SDS011;13778;48.236;9.894;2022-12-18T10:56:27;52.75;;;23.67;;
25988;SDS011;13778;48.236;9.894;2022-12-18T10:59:18;51.95;;;24.10;;
25988;SDS011;13778;48.236;9.894;2022-12-18T11:02:16;52.08;;;22.55;;
25988;SDS011;13778;48.236;9.894;2022-12-18T11:05:22;54.50;;;25.42;;
25988;SDS011;13778;48.236;9.894;2022-12-18T11:08:19;52.03;;;22.98;;
25988;SDS011;13778;48.236;9.894;2022-12-18T11:11:18;46.90;;;22.90;;
25988;SDS011;13778;48.236;9.894;2022-12-18T11:14:12;52.92;;;23.88;;
25988;SDS011;13778;48.236;9.894;2022-12-18T11:17:09;51.58;;;25.83;;
25988;SDS011;13778;48.236;9.894;2022-12-18T11:20:19;52.33;;;24.65;;
25988;SDS011;13778;48.236;9.894;2022-12-18T11:23:11;52.22;;;22.20;;
25988;SDS011;13778;48.236;9.894;2022-12-18T11:26:03;53.15;;;23.50;;
25988;SDS011;13778;48.236;9.894;2022-12-18T11:29:07;49.33;;;22.65;;
25988;SDS011;13778;48.236;9.894;2022-12-18T11:35:12;48.13;;;22.35;;
25988;SDS011;13778;48.236;9.894;2022-12-18T11:38:06;50.88;;;22.98;;
25988;SDS011;13778;48.236;9.894;2022-12-18T11:41:02;46.90;;;21.35;;
25988;SDS011;13778;48.236;9.894;2022-12-18T11:43:55;46.60;;;22.80;;
25988;SDS011;13778;48.236;9.894;2022-12-18T11:46:47;46.75;;;21.55;;
25988;SDS011;13778;48.236;9.894;2022-12-18T11:49:39;54.10;;;22.70;;
25988;SDS011;13778;48.236;9.894;2022-12-18T11:52:33;48.85;;;22.33;;
25988;SDS011;13778;48.236;9.894;2022-12-18T11:55:28;44.97;;;20.98;;
25988;SDS011;13778;48.236;9.894;2022-12-18T11:58:23;40.38;;;19.10;;
25988;SDS011;13778;48.236;9.894;2022-12-18T12:01:19;47.20;;;21.20;;
25988;SDS011;13778;48.236;9.894;2022-12-18T12:04:22;42.05;;;19.75;;
25988;SDS011;13778;48.236;9.894;2022-12-18T12:07:19;51.45;;;23.25;;
25988;SDS011;13778;48.236;9.894;2022-12-18T12:10:16;41.80;;;20.15;;
25988;SDS011;13778;48.236;9.894;2022-12-18T12:13:14;47.42;;;20.85;;
25988;SDS011;13778;48.236;9.894;2022-12-18T12:16:10;50.40;;;23.35;;
25988;SDS011;13778;48.236;9.894;2022-12-18T12:19:06;46.83;;;22.17;;
25988;SDS011;13778;48.236;9.894;2022-12-18T12:22:03;47.50;;;22.52;;
25988;SDS011;13778;48.236;9.894;2022-12-18T12:24:59;42.88;;;20.42;;
25988;SDS011;13778;48.236;9.894;2022-12-18T12:27:55;48.05;;;21.67;;
25988;SDS011;13778;48.236;9.894;2022-12-18T12:30:52;49.30;;;23.17;;
25988;SDS011;13778;48.236;9.894;2022-12-18T12:33:47;47.78;;;21.30;;
25988;SDS011;13778;48.236;9.894;2022-12-18T12:36:41;48.60;;;20.33;;
25988;SDS011;13778;48.236;9.894;2022-12-18T12:39:38;78.63;;;40.30;;
25988;SDS011;13778;48.236;9.894;2022-12-18T12:42:31;50.03;;;21.42;;
25988;SDS011;13778;48.236;9.894;2022-12-18T12:45:42;48.85;;;22.77;;
25988;SDS011;13778;48.236;9.894;2022-12-18T12:48:37;51.58;;;21.05;;
25988;SDS011;13778;48.236;9.894;2022-12-18T12:51:30;58.33;;;28.48;;
25988;SDS011;13778;48.236;9.894;2022-12-18T12:54:23;50.83;;;23.55;;
25988;SDS011;13778;48.236;9.894;2022-12-18T12:57:15;58.55;;;24.65;;
25988;SDS011;13778;48.236;9.894;2022-12-18T13:00:08;50.92;;;24.35;;
25988;SDS011;13778;48.236;9.894;2022-12-18T13:03:03;49.22;;;21.92;;
25988;SDS011;13778;48.236;9.894;2022-12-18T13:05:57;48.15;;;24.52;;
25988;SDS011;13778;48.236;9.894;2022-12-18T13:08:54;52.42;;;22.85;;
25988;SDS011;13778;48.236;9.894;2022-12-18T13:11:45;49.97;;;21.95;;
25988;SDS011;13778;48.236;9.894;2022-12-18T13:14:53;48.45;;;22.02;;
25988;SDS011;13778;48.236;9.894;2022-12-18T13:18:09;47.33;;;20.73;;
25988;SDS011;13778;48.236;9.894;2022-12-18T13:21:03;45.90;;;21.48;;
25988;SDS011;13778;48.236;9.894;2022-12-18T13:23:54;47.17;;;23.25;;
25988;SDS011;13778;48.236;9.894;2022-12-18T13:26:45;47.97;;;21.58;;
25988;SDS011;13778;48.236;9.894;2022-12-18T13:29:42;52.63;;;23.15;;
25988;SDS011;13778;48.236;9.894;2022-12-18T13:32:33;50.95;;;25.65;;
25988;SDS011;13778;48.236;9.894;2022-12-18T13:35:41;47.47;;;22.40;;
25988;SDS011;13778;48.236;9.894;2022-12-18T13:38:33;45.00;;;21.05;;
25988;SDS011;13778;48.236;9.894;2022-12-18T13:41:24;48.08;;;21.00;;
25988;SDS011;13778;48.236;9.894;2022-12-18T13:47:05;48.83;;;22.25;;
25988;SDS011;13778;48.236;9.894;2022-12-18T13:50:14;53.88;;;23.60;;
25988;SDS011;13778;48.236;9.894;2022-12-18T13:53:12;48.00;;;22.08;;
25988;SDS011;13778;48.236;9.894;2022-12-18T13:56:08;47.92;;;22.08;;
25988;SDS011;13778;48.236;9.894;2022-12-18T14:02:13;46.42;;;21.02;;
25988;SDS011;13778;48.236;9.894;2022-12-18T14:05:04;47.53;;;21.00;;
25988;SDS011;13778;48.236;9.894;2022-12-18T14:07:54;54.30;;;23.08;;
25988;SDS011;13778;48.236;9.894;2022-12-18T14:10:47;51.25;;;23.15;;
25988;SDS011;13778;48.236;9.894;2022-12-18T14:13:40;54.03;;;23.73;;
25988;SDS011;13778;48.236;9.894;2022-12-18T14:16:32;57.38;;;25.45;;
25988;SDS011;13778;48.236;9.894;2022-12-18T14:19:22;55.15;;;24.13;;
25988;SDS011;13778;48.236;9.894;2022-12-18T14:22:14;49.43;;;21.43;;
25988;SDS011;13778;48.236;9.894;2022-12-18T14:25:13;50.50;;;22.23;;
25988;SDS011;13778;48.236;9.894;2022-12-18T14:28:12;56.97;;;24.30;;
25988;SDS011;13778;48.236;9.894;2022-12-18T14:31:03;47.47;;;22.75;;
25988;SDS011;13778;48.236;9.894;2022-12-18T14:33:54;53.67;;;23.73;;
25988;SDS011;13778;48.236;9.894;2022-12-18T14:36:51;55.35;;;24.45;;
25988;SDS011;13778;48.236;9.894;2022-12-18T14:39:51;53.03;;;21.27;;
25988;SDS011;13778;48.236;9.894;2022-12-18T14:42:42;46.13;;;20.52;;
25988;SDS011;13778;48.236;9.894;2022-12-18T14:45:34;47.83;;;20.58;;
25988;SDS011;13778;48.236;9.894;2022-12-18T14:48:32;46.33;;;19.58;;
25988;SDS011;13778;48.236;9.894;2022-12-18T14:51:27;42.33;;;19.05;;
25988;SDS011;13778;48.236;9.894;2022-12-18T14:54:18;40.05;;;18.92;;
25988;SDS011;13778;48.236;9.894;2022-12-18T14:57:14;49.33;;;22.53;;
25988;SDS011;13778;48.236;9.894;2022-12-18T15:00:14;38.55;;;18.90;;
25988;SDS011;13778;48.236;9.894;2022-12-18T15:03:06;40.78;;;19.23;;
25988;SDS011;13778;48.236;9.894;2022-12-18T15:09:04;50.13;;;20.25;;
25988;SDS011;13778;48.236;9.894;2022-12-18T15:11:56;49.45;;;21.33;;
25988;SDS011;13778;48.236;9.894;2022-12-18T15:17:38;48.47;;;20.42;;
25988;SDS011;13778;48.236;9.894;2022-12-18T15:20:30;45.13;;;20.23;;
25988;SDS011;13778;48.236;9.894;2022-12-18T15:23:22;43.40;;;19.80;;
25988;SDS011;13778;48.236;9.894;2022-12-18T15:26:13;48.15;;;20.77;;
25988;SDS011;13778;48.236;9.894;2022-12-18T15:29:04;49.53;;;20.23;;
25988;SDS011;13778;48.236;9.894;2022-12-18T15:31:59;44.20;;;20.50;;
25988;SDS011;13778;48.236;9.894;2022-12-18T15:34:50;43.90;;;19.17;;
25988;SDS011;13778;48.236;9.894;2022-12-18T15:37:41;47.38;;;20.17;;
25988;SDS011;13778;48.236;9.894;2022-12-18T15:40:32;43.65;;;20.15;;
25988;SDS011;13778;48.236;9.894;2022-12-18T15:43:23;51.58;;;22.67;;
25988;SDS011;13778;48.236;9.894;2022-12-18T15:46:25;46.08;;;21.23;;
25988;SDS011;13778;48.236;9.894;2022-12-18T15:49:16;45.93;;;20.13;;
25988;SDS011;13778;48.236;9.894;2022-12-18T15:52:07;56.25;;;20.90;;
25988;SDS011;13778;48.236;9.894;2022-12-18T15:55:01;50.88;;;20.92;;
25988;SDS011;13778;48.236;9.894;2022-12-18T15:58:09;48.35;;;19.85;;
25988;SDS011;13778;48.236;9.894;2022-12-18T16:01:00;40.90;;;19.58;;
25988;SDS011;13778;48.236;9.894;2022-12-18T16:03:50;44.45;;;19.60;;
25988;SDS011;13778;48.236;9.894;2022-12-18T16:06:40;41.47;;;18.35;;
25988;SDS011;13778;48.236;9.894;2022-12-18T16:09:31;35.83;;;18.70;;
25988;SDS011;13778;48.236;9.894;2022-12-18T16:12:23;47.03;;;19.88;;
25988;SDS011;13778;48.236;9.894;2022-12-18T16:15:14;44.40;;;19.55;;
25988;SDS011;13778;48.236;9.894;2022-12-18T16:18:05;42.53;;;19.35;;
25988;SDS011;13778;48.236;9.894;2022-12-18T16:20:55;45.72;;;19.92;;
25988;SDS011;13778;48.236;9.894;2022-12-18T16:26:37;46.78;;;19.77;;
25988;SDS011;13778;48.236;9.894;2022-12-18T16:29:29;52.17;;;21.37;;
25988;SDS011;13778;48.236;9.894;2022-12-18T16:32:21;44.95;;;20.27;;
25988;SDS011;13778;48.236;9.894;2022-12-18T16:35:11;44.45;;;20.63;;
25988;SDS011;13778;48.236;9.894;2022-12-18T16:38:02;46.10;;;20.92;;
25988;SDS011;13778;48.236;9.894;2022-12-18T16:40:53;44.03;;;20.92;;
25988;SDS011;13778;48.236;9.894;2022-12-18T16:44:01;52.38;;;22.67;;
25988;SDS011;13778;48.236;9.894;2022-12-18T16:46:53;44.63;;;20.23;;
25988;SDS011;13778;48.236;9.894;2022-12-18T16:49:43;46.50;;;20.50;;
25988;SDS011;13778;48.236;9.894;2022-12-18T16:52:34;44.43;;;20.10;;
25988;SDS011;13778;48.236;9.894;2022-12-18T16:55:25;44.65;;;20.35;;
25988;SDS011;13778;48.236;9.894;2022-12-18T16:58:15;46.83;;;20.98;;
25988;SDS011;13778;48.236;9.894;2022-12-18T17:01:06;47.38;;;20.77;;
25988;SDS011;13778;48.236;9.894;2022-12-18T17:06:49;46.17;;;20.00;;
25988;SDS011;13778;48.236;9.894;2022-12-18T17:09:40;50.03;;;20.05;;
25988;SDS011;13778;48.236;9.894;2022-12-18T17:12:30;46.33;;;20.00;;
25988;SDS011;13778;48.236;9.894;2022-12-18T17:15:21;48.53;;;21.40;;